createdAt,value
2022-11-03T00:01:22.645Z,14.29
2022-11-03T00:07:15.517Z,14.20
2022-11-03T00:13:02.586Z,14.08
2022-11-03T00:18:49.448Z,13.95
2022-11-03T00:24:38.903Z,13.90
2022-11-03T00:30:25.776Z,13.84
2022-11-03T00:36:26.597Z,13.69
2022-11-03T00:42:13.397Z,13.61
2022-11-03T00:48:19.086Z,13.56
2022-11-03T00:54:07.588Z,13.69
2022-11-03T00:59:55.826Z,13.53
2022-11-03T01:06:02.732Z,13.61
2022-11-03T01:12:01.634Z,13.52
2022-11-03T01:17:48.231Z,13.60
2022-11-03T01:23:36.014Z,13.53
2022-11-03T01:29:22.606Z,13.60
2022-11-03T01:35:17.064Z,13.36
2022-11-03T01:41:07.256Z,13.52
2022-11-03T01:47:01.544Z,13.54
2022-11-03T01:52:59.766Z,13.46
2022-11-03T01:58:49.743Z,13.58
2022-11-03T02:04:36.709Z,13.63
2022-11-03T02:10:24.747Z,13.73
2022-11-03T02:16:12.987Z,13.71
2022-11-03T02:22:25.214Z,13.69
2022-11-03T02:28:23.479Z,13.67
2022-11-03T02:34:17.933Z,13.77
2022-11-03T02:40:13.957Z,13.70
2022-11-03T02:46:03.866Z,13.71
2022-11-03T02:52:00.449Z,13.70
2022-11-03T02:58:01.302Z,13.77
2022-11-03T03:03:53.996Z,13.91
2022-11-03T03:09:43.056Z,13.80
2022-11-03T03:15:55.920Z,13.80
2022-11-03T03:21:43.894Z,13.69
2022-11-03T03:27:33.926Z,13.74
2022-11-03T03:33:21.679Z,13.74
2022-11-03T03:39:12.520Z,13.78
2022-11-03T03:45:00.358Z,13.86
2022-11-03T03:50:49.694Z,13.90
2022-11-03T03:56:42.358Z,13.86
2022-11-03T04:02:28.883Z,13.86
2022-11-03T04:08:17.791Z,13.89
2022-11-03T04:14:23.002Z,13.97
2022-11-03T04:20:31.785Z,14.04
2022-11-03T04:26:22.818Z,14.02
2022-11-03T04:32:17.689Z,14.01
2022-11-03T04:38:20.623Z,13.98
2022-11-03T04:44:15.122Z,13.96
2022-11-03T04:50:02.281Z,14.00
2022-11-03T04:55:51.674Z,13.96
2022-11-03T05:01:38.911Z,14.01
2022-11-03T05:07:36.024Z,13.98
2022-11-03T05:13:27.460Z,14.05
2022-11-03T05:19:20.853Z,14.01
2022-11-03T05:25:34.456Z,14.13
2022-11-03T05:31:27.171Z,14.05
2022-11-03T05:37:26.417Z,14.11
2022-11-03T05:43:15.015Z,14.16
2022-11-03T05:49:03.038Z,14.02
2022-11-03T05:54:52.314Z,13.96
2022-11-03T06:00:47.130Z,13.71
2022-11-03T06:06:38.478Z,13.81
2022-11-03T06:12:26.235Z,13.70
2022-11-03T06:18:25.709Z,13.60
2022-11-03T06:24:15.160Z,13.48
2022-11-03T06:30:19.707Z,13.36
2022-11-03T06:36:16.461Z,12.92
2022-11-03T06:42:16.562Z,13.02
2022-11-03T06:48:08.575Z,12.95
2022-11-03T06:53:59.090Z,12.96
2022-11-03T06:59:57.089Z,13.02
2022-11-03T07:06:27.489Z,13.06
2022-11-03T07:12:18.693Z,13.01
2022-11-03T07:18:27.027Z,12.98
2022-11-03T07:24:19.072Z,13.01
2022-11-03T07:30:20.129Z,12.75
2022-11-03T07:36:15.914Z,12.73
2022-11-03T07:42:21.294Z,12.77
2022-11-03T07:48:33.796Z,12.75
2022-11-03T07:54:30.356Z,12.77
2022-11-03T08:00:22.167Z,13.03
2022-11-03T08:06:10.240Z,12.95
2022-11-03T08:11:58.543Z,12.89
2022-11-03T08:17:45.684Z,12.93
2022-11-03T08:23:33.104Z,12.96
2022-11-03T08:29:21.493Z,12.88
2022-11-03T08:35:08.439Z,12.81
2022-11-03T08:40:56.182Z,12.58
2022-11-03T08:46:45.099Z,12.68
2022-11-03T08:52:31.848Z,12.76
2022-11-03T08:58:18.708Z,12.85
2022-11-03T09:04:05.602Z,12.93
2022-11-03T09:10:28.353Z,12.83
2022-11-03T09:16:18.078Z,12.78
2022-11-03T09:22:05.655Z,12.92
2022-11-03T09:27:55.466Z,13.05
2022-11-03T09:33:42.363Z,12.93
2022-11-03T09:39:29.123Z,12.88
2022-11-03T09:45:15.947Z,12.87
2022-11-03T09:51:05.347Z,12.82
2022-11-03T09:56:52.177Z,12.73
2022-11-03T10:02:40.437Z,12.81
2022-11-03T10:08:33.579Z,12.89
2022-11-03T10:14:23.487Z,12.82
2022-11-03T10:20:13.212Z,12.76
2022-11-03T10:26:11.242Z,12.72
2022-11-03T10:32:01.531Z,12.84
2022-11-03T10:37:48.365Z,12.83
2022-11-03T10:43:44.252Z,12.95
2022-11-03T10:49:43.230Z,12.91
2022-11-03T10:55:31.993Z,12.96
2022-11-03T11:01:18.825Z,13.05
2022-11-03T11:07:19.256Z,13.04
2022-11-03T11:13:18.864Z,13.22
2022-11-03T11:19:05.637Z,13.24
2022-11-03T11:24:58.318Z,12.51
2022-11-03T11:30:55.841Z,12.30
2022-11-03T11:37:03.789Z,12.27
2022-11-03T11:43:02.869Z,12.48
2022-11-03T11:49:04.894Z,12.55
2022-11-03T11:54:54.301Z,12.87
2022-11-03T12:01:03.245Z,13.28
2022-11-03T12:06:52.717Z,13.54
2022-11-03T12:12:39.442Z,13.72
2022-11-03T12:18:50.197Z,13.84
2022-11-03T12:24:57.843Z,13.86
2022-11-03T12:30:44.466Z,13.97
2022-11-03T12:36:31.492Z,13.97
2022-11-03T12:42:21.786Z,13.98
2022-11-03T12:48:08.802Z,13.84
2022-11-03T12:53:57.618Z,13.73
2022-11-03T12:59:44.398Z,13.98
2022-11-03T13:05:32.580Z,14.01
2022-11-03T13:11:44.487Z,13.77
2022-11-03T13:17:59.371Z,13.45
2022-11-03T13:23:45.271Z,13.28
2022-11-03T13:29:36.430Z,13.23
2022-11-03T13:35:23.907Z,12.85
2022-11-03T13:41:12.188Z,12.52
2022-11-03T13:46:59.304Z,12.63
2022-11-03T13:52:46.902Z,12.86
2022-11-03T14:04:54.509Z,13.05
2022-11-03T14:10:41.441Z,13.28
2022-11-03T14:16:28.914Z,13.27
2022-11-03T14:22:19.525Z,13.43
2022-11-03T14:28:06.537Z,13.34
2022-11-03T14:33:53.638Z,13.27
2022-11-03T14:39:42.581Z,13.22
2022-11-03T14:45:34.187Z,13.38
2022-11-03T14:51:37.265Z,13.35
2022-11-03T14:57:24.181Z,13.30
2022-11-03T15:03:13.288Z,13.07
2022-11-03T15:09:00.514Z,12.86
2022-11-03T15:14:52.329Z,12.97
2022-11-03T15:20:40.043Z,13.00
2022-11-03T15:26:29.021Z,13.00
2022-11-03T15:32:17.013Z,12.73
2022-11-03T15:38:06.364Z,12.71
2022-11-03T15:43:53.924Z,12.66
2022-11-03T15:49:40.677Z,12.85
2022-11-03T15:55:27.563Z,12.72
2022-11-03T16:01:14.364Z,12.86
2022-11-03T16:07:07.803Z,12.77
2022-11-03T16:12:55.510Z,12.46
2022-11-03T16:18:42.384Z,12.38
2022-11-03T16:24:34.860Z,12.35
2022-11-03T16:30:23.854Z,12.26
2022-11-03T16:36:10.577Z,12.23
2022-11-03T16:42:05.372Z,12.02
2022-11-03T16:47:57.909Z,11.89
2022-11-03T16:53:44.955Z,11.92
2022-11-03T16:59:31.990Z,11.71
2022-11-03T17:05:21.039Z,11.65
2022-11-03T17:11:07.866Z,11.60
2022-11-03T17:16:54.860Z,11.53
2022-11-03T17:22:41.684Z,11.50
2022-11-03T17:28:28.746Z,11.41
2022-11-03T17:54:57.281Z,11.01
2022-11-03T18:08:44.639Z,11.02
2022-11-03T18:15:08.512Z,10.93
2022-11-03T18:22:12.526Z,10.91
2022-11-03T18:29:20.834Z,10.66
2022-11-03T18:35:22.908Z,10.46
2022-11-03T18:41:55.433Z,10.38
2022-11-03T18:47:45.815Z,10.32
2022-11-03T18:53:34.277Z,10.30
2022-11-03T18:59:52.147Z,10.18
2022-11-03T19:12:39.805Z,10.11
2022-11-03T19:18:28.678Z,10.04
2022-11-03T19:24:15.692Z,9.94
2022-11-03T19:30:06.244Z,10.00
2022-11-03T19:35:53.389Z,9.98
2022-11-03T19:42:09.588Z,10.08
2022-11-03T19:48:23.697Z,10.13
2022-11-03T19:54:30.557Z,10.12
2022-11-03T20:00:36.646Z,10.07
2022-11-03T20:06:53.741Z,10.20
2022-11-03T20:13:20.563Z,10.15
2022-11-03T20:19:30.495Z,10.15
2022-11-03T20:25:50.752Z,10.09
2022-11-03T20:32:09.793Z,10.26
2022-11-03T20:38:09.272Z,10.40
2022-11-03T20:44:00.266Z,10.30
2022-11-03T20:50:11.562Z,10.35
2022-11-03T20:56:04.477Z,10.40
2022-11-03T21:02:53.815Z,10.45
2022-11-03T21:33:16.495Z,10.35
2022-11-03T21:39:07.318Z,10.40
2022-11-03T21:45:52.955Z,10.20
2022-11-03T21:58:50.396Z,10.38
2022-11-03T22:04:38.775Z,10.40
2022-11-03T22:11:07.377Z,10.45
2022-11-03T22:16:58.157Z,10.39
2022-11-03T22:23:14.877Z,10.33
2022-11-03T22:36:32.582Z,10.71
2022-11-03T22:42:39.495Z,10.40
2022-11-03T22:48:42.660Z,10.46
2022-11-03T22:54:35.665Z,10.45
2022-11-03T23:00:22.624Z,10.63
2022-11-03T23:06:26.272Z,10.62
2022-11-03T23:12:13.460Z,10.52
2022-11-03T23:18:22.977Z,10.58
2022-11-03T23:24:28.250Z,10.47
2022-11-03T23:30:17.175Z,10.12
2022-11-03T23:36:19.979Z,10.05
2022-11-03T23:42:07.288Z,10.27
2022-11-03T23:48:15.002Z,10.24
2022-11-03T23:54:03.647Z,9.92
2022-11-03T23:59:52.518Z,10.11
